sensor_id;sensor_type;location;lat;lon;timestamp;P1;durP1;ratioP1;P2;durP2;ratioP2
77826;SDS011;67016;42.508;25.678;2023-04-26T00:00:01;4.47;;;3.00;;
77826;SDS011;67016;42.508;25.678;2023-04-26T00:02:32;6.03;;;3.58;;
77826;SDS011;67016;42.508;25.678;2023-04-26T00:04:58;5.25;;;3.38;;
77826;SDS011;67016;42.508;25.678;2023-04-26T00:07:25;6.45;;;3.50;;
77826;SDS011;67016;42.508;25.678;2023-04-26T00:09:52;5.18;;;3.42;;
77826;SDS011;67016;42.508;25.678;2023-04-26T00:12:18;3.60;;;3.30;;
77826;SDS011;67016;42.508;25.678;2023-04-26T00:14:44;4.30;;;3.20;;
77826;SDS011;67016;42.508;25.678;2023-04-26T00:17:10;5.35;;;3.00;;
77826;SDS011;67016;42.508;25.678;2023-04-26T00:19:35;4.65;;;3.45;;
77826;SDS011;67016;42.508;25.678;2023-04-26T00:22:01;4.38;;;3.05;;
77826;SDS011;67016;42.508;25.678;2023-04-26T00:24:27;5.18;;;3.53;;
77826;SDS011;67016;42.508;25.678;2023-04-26T00:26:56;3.60;;;3.30;;
77826;SDS011;67016;42.508;25.678;2023-04-26T00:29:21;3.97;;;3.10;;
77826;SDS011;67016;42.508;25.678;2023-04-26T00:31:47;6.05;;;3.60;;
77826;SDS011;67016;42.508;25.678;2023-04-26T00:34:13;7.65;;;3.70;;
77826;SDS011;67016;42.508;25.678;2023-04-26T00:36:38;5.00;;;4.32;;
77826;SDS011;67016;42.508;25.678;2023-04-26T00:39:04;9.85;;;3.95;;
77826;SDS011;67016;42.508;25.678;2023-04-26T00:41:30;6.55;;;4.50;;
77826;SDS011;67016;42.508;25.678;2023-04-26T00:43:56;6.43;;;3.10;;
77826;SDS011;67016;42.508;25.678;2023-04-26T00:46:21;10.40;;;3.65;;
77826;SDS011;67016;42.508;25.678;2023-04-26T00:48:47;5.25;;;3.03;;
77826;SDS011;67016;42.508;25.678;2023-04-26T00:51:13;4.82;;;4.00;;
77826;SDS011;67016;42.508;25.678;2023-04-26T00:53:39;8.77;;;3.20;;
77826;SDS011;67016;42.508;25.678;2023-04-26T00:56:10;3.83;;;3.00;;
77826;SDS011;67016;42.508;25.678;2023-04-26T00:58:36;7.57;;;3.70;;
77826;SDS011;67016;42.508;25.678;2023-04-26T01:01:02;5.30;;;4.80;;
77826;SDS011;67016;42.508;25.678;2023-04-26T01:03:28;5.75;;;5.00;;
77826;SDS011;67016;42.508;25.678;2023-04-26T01:05:54;6.15;;;5.03;;
77826;SDS011;67016;42.508;25.678;2023-04-26T01:08:20;7.82;;;4.93;;
77826;SDS011;67016;42.508;25.678;2023-04-26T01:10:49;5.80;;;5.20;;
77826;SDS011;67016;42.508;25.678;2023-04-26T01:13:15;6.32;;;5.68;;
77826;SDS011;67016;42.508;25.678;2023-04-26T01:15:47;11.27;;;6.05;;
77826;SDS011;67016;42.508;25.678;2023-04-26T01:18:13;7.68;;;6.57;;
77826;SDS011;67016;42.508;25.678;2023-04-26T01:20:39;7.72;;;6.93;;
77826;SDS011;67016;42.508;25.678;2023-04-26T01:23:06;7.93;;;6.18;;
77826;SDS011;67016;42.508;25.678;2023-04-26T01:25:32;12.32;;;7.15;;
77826;SDS011;67016;42.508;25.678;2023-04-26T01:27:58;8.25;;;7.03;;
77826;SDS011;67016;42.508;25.678;2023-04-26T01:30:24;7.80;;;6.97;;
77826;SDS011;67016;42.508;25.678;2023-04-26T01:32:50;12.55;;;6.97;;
77826;SDS011;67016;42.508;25.678;2023-04-26T01:35:16;7.63;;;6.72;;
77826;SDS011;67016;42.508;25.678;2023-04-26T01:37:42;8.98;;;6.88;;
77826;SDS011;67016;42.508;25.678;2023-04-26T01:40:08;7.82;;;6.88;;
77826;SDS011;67016;42.508;25.678;2023-04-26T01:42:34;7.90;;;6.97;;
77826;SDS011;67016;42.508;25.678;2023-04-26T01:45:00;10.32;;;7.35;;
77826;SDS011;67016;42.508;25.678;2023-04-26T01:47:25;8.32;;;6.88;;
77826;SDS011;67016;42.508;25.678;2023-04-26T01:49:51;7.97;;;7.05;;
77826;SDS011;67016;42.508;25.678;2023-04-26T01:52:17;7.63;;;6.72;;
77826;SDS011;67016;42.508;25.678;2023-04-26T01:54:43;8.38;;;7.47;;
77826;SDS011;67016;42.508;25.678;2023-04-26T01:57:08;8.85;;;7.30;;
77826;SDS011;67016;42.508;25.678;2023-04-26T01:59:34;8.52;;;7.32;;
77826;SDS011;67016;42.508;25.678;2023-04-26T02:01:59;8.25;;;7.20;;
77826;SDS011;67016;42.508;25.678;2023-04-26T02:04:26;9.25;;;7.55;;
77826;SDS011;67016;42.508;25.678;2023-04-26T02:06:52;9.60;;;7.90;;
77826;SDS011;67016;42.508;25.678;2023-04-26T02:09:17;8.27;;;7.15;;
77826;SDS011;67016;42.508;25.678;2023-04-26T02:11:43;8.50;;;6.78;;
77826;SDS011;67016;42.508;25.678;2023-04-26T02:14:09;14.55;;;10.52;;
77826;SDS011;67016;42.508;25.678;2023-04-26T02:16:35;10.18;;;8.00;;
77826;SDS011;67016;42.508;25.678;2023-04-26T02:19:00;9.70;;;7.95;;
77826;SDS011;67016;42.508;25.678;2023-04-26T02:21:27;11.45;;;7.90;;
77826;SDS011;67016;42.508;25.678;2023-04-26T02:23:54;9.80;;;7.80;;
77826;SDS011;67016;42.508;25.678;2023-04-26T02:26:20;9.07;;;7.60;;
77826;SDS011;67016;42.508;25.678;2023-04-26T02:28:46;9.73;;;6.93;;
77826;SDS011;67016;42.508;25.678;2023-04-26T02:31:11;10.13;;;7.30;;
77826;SDS011;67016;42.508;25.678;2023-04-26T02:33:37;11.60;;;8.25;;
77826;SDS011;67016;42.508;25.678;2023-04-26T02:36:03;10.02;;;7.57;;
77826;SDS011;67016;42.508;25.678;2023-04-26T02:38:35;10.20;;;7.90;;
77826;SDS011;67016;42.508;25.678;2023-04-26T02:41:01;10.10;;;7.55;;
77826;SDS011;67016;42.508;25.678;2023-04-26T02:43:27;10.70;;;7.95;;
77826;SDS011;67016;42.508;25.678;2023-04-26T02:45:53;11.18;;;9.00;;
77826;SDS011;67016;42.508;25.678;2023-04-26T02:48:19;17.65;;;8.35;;
77826;SDS011;67016;42.508;25.678;2023-04-26T02:50:45;12.13;;;8.43;;
77826;SDS011;67016;42.508;25.678;2023-04-26T02:53:11;11.60;;;7.95;;
77826;SDS011;67016;42.508;25.678;2023-04-26T02:55:37;12.13;;;8.60;;
77826;SDS011;67016;42.508;25.678;2023-04-26T02:58:04;16.33;;;8.77;;
77826;SDS011;67016;42.508;25.678;2023-04-26T03:00:30;34.58;;;22.55;;
77826;SDS011;67016;42.508;25.678;2023-04-26T03:02:58;25.88;;;18.10;;
77826;SDS011;67016;42.508;25.678;2023-04-26T03:05:23;21.70;;;14.43;;
77826;SDS011;67016;42.508;25.678;2023-04-26T03:07:49;12.48;;;9.00;;
77826;SDS011;67016;42.508;25.678;2023-04-26T03:10:15;11.70;;;8.25;;
77826;SDS011;67016;42.508;25.678;2023-04-26T03:12:41;14.90;;;9.25;;
77826;SDS011;67016;42.508;25.678;2023-04-26T03:15:07;15.88;;;8.88;;
77826;SDS011;67016;42.508;25.678;2023-04-26T03:17:32;13.70;;;8.98;;
77826;SDS011;67016;42.508;25.678;2023-04-26T03:19:58;10.52;;;8.75;;
77826;SDS011;67016;42.508;25.678;2023-04-26T03:22:24;14.07;;;8.95;;
77826;SDS011;67016;42.508;25.678;2023-04-26T03:24:50;20.90;;;8.52;;
77826;SDS011;67016;42.508;25.678;2023-04-26T03:27:15;11.57;;;8.82;;
77826;SDS011;67016;42.508;25.678;2023-04-26T03:29:41;12.02;;;8.43;;
77826;SDS011;67016;42.508;25.678;2023-04-26T03:32:06;10.85;;;7.70;;
77826;SDS011;67016;42.508;25.678;2023-04-26T03:34:32;10.10;;;8.23;;
77826;SDS011;67016;42.508;25.678;2023-04-26T03:36:58;8.23;;;7.00;;
77826;SDS011;67016;42.508;25.678;2023-04-26T03:39:24;10.50;;;6.93;;
77826;SDS011;67016;42.508;25.678;2023-04-26T03:41:50;8.52;;;6.68;;
77826;SDS011;67016;42.508;25.678;2023-04-26T03:44:16;8.75;;;7.45;;
77826;SDS011;67016;42.508;25.678;2023-04-26T03:46:42;8.40;;;7.00;;
77826;SDS011;67016;42.508;25.678;2023-04-26T03:49:07;8.07;;;6.85;;
77826;SDS011;67016;42.508;25.678;2023-04-26T03:51:33;8.27;;;6.90;;
77826;SDS011;67016;42.508;25.678;2023-04-26T03:53:59;8.98;;;6.60;;
77826;SDS011;67016;42.508;25.678;2023-04-26T03:56:24;8.70;;;6.55;;
77826;SDS011;67016;42.508;25.678;2023-04-26T03:58:50;9.95;;;5.60;;
77826;SDS011;67016;42.508;25.678;2023-04-26T04:01:15;7.68;;;5.63;;
77826;SDS011;67016;42.508;25.678;2023-04-26T04:03:41;6.38;;;5.43;;
77826;SDS011;67016;42.508;25.678;2023-04-26T04:06:07;7.82;;;5.93;;
77826;SDS011;67016;42.508;25.678;2023-04-26T04:08:32;8.93;;;5.53;;
77826;SDS011;67016;42.508;25.678;2023-04-26T04:10:58;10.25;;;5.82;;
77826;SDS011;67016;42.508;25.678;2023-04-26T04:13:25;9.95;;;6.32;;
77826;SDS011;67016;42.508;25.678;2023-04-26T04:15:51;9.90;;;6.28;;
77826;SDS011;67016;42.508;25.678;2023-04-26T04:18:17;9.20;;;6.60;;
77826;SDS011;67016;42.508;25.678;2023-04-26T04:20:42;7.43;;;5.72;;
77826;SDS011;67016;42.508;25.678;2023-04-26T04:23:08;8.82;;;6.53;;
77826;SDS011;67016;42.508;25.678;2023-04-26T04:25:34;7.55;;;5.47;;
77826;SDS011;67016;42.508;25.678;2023-04-26T04:28:01;6.22;;;5.63;;
77826;SDS011;67016;42.508;25.678;2023-04-26T04:30:27;6.88;;;5.43;;
77826;SDS011;67016;42.508;25.678;2023-04-26T04:32:54;7.47;;;5.55;;
77826;SDS011;67016;42.508;25.678;2023-04-26T04:35:21;6.20;;;5.13;;
77826;SDS011;67016;42.508;25.678;2023-04-26T04:37:49;7.35;;;4.82;;
77826;SDS011;67016;42.508;25.678;2023-04-26T04:40:15;7.57;;;4.85;;
77826;SDS011;67016;42.508;25.678;2023-04-26T04:42:41;8.43;;;4.68;;
77826;SDS011;67016;42.508;25.678;2023-04-26T04:45:08;8.55;;;5.20;;
77826;SDS011;67016;42.508;25.678;2023-04-26T04:47:34;5.80;;;4.95;;
77826;SDS011;67016;42.508;25.678;2023-04-26T04:50:03;9.63;;;5.72;;
77826;SDS011;67016;42.508;25.678;2023-04-26T04:52:29;7.95;;;6.32;;
77826;SDS011;67016;42.508;25.678;2023-04-26T04:54:57;7.90;;;7.07;;
77826;SDS011;67016;42.508;25.678;2023-04-26T04:57:24;7.80;;;6.60;;
77826;SDS011;67016;42.508;25.678;2023-04-26T04:59:50;9.27;;;7.47;;
77826;SDS011;67016;42.508;25.678;2023-04-26T05:02:16;9.77;;;6.85;;
77826;SDS011;67016;42.508;25.678;2023-04-26T05:04:42;8.30;;;6.80;;
77826;SDS011;67016;42.508;25.678;2023-04-26T05:07:08;7.65;;;6.85;;
77826;SDS011;67016;42.508;25.678;2023-04-26T05:09:33;9.43;;;7.97;;
77826;SDS011;67016;42.508;25.678;2023-04-26T05:11:59;7.57;;;6.78;;
77826;SDS011;67016;42.508;25.678;2023-04-26T05:14:25;11.10;;;8.73;;
77826;SDS011;67016;42.508;25.678;2023-04-26T05:16:51;15.23;;;10.65;;
77826;SDS011;67016;42.508;25.678;2023-04-26T05:19:17;8.50;;;7.25;;
77826;SDS011;67016;42.508;25.678;2023-04-26T05:21:42;9.35;;;7.60;;
77826;SDS011;67016;42.508;25.678;2023-04-26T05:24:08;9.57;;;7.32;;
77826;SDS011;67016;42.508;25.678;2023-04-26T05:26:34;9.90;;;8.18;;
77826;SDS011;67016;42.508;25.678;2023-04-26T05:29:00;9.13;;;8.10;;
77826;SDS011;67016;42.508;25.678;2023-04-26T05:31:26;17.33;;;9.60;;
77826;SDS011;67016;42.508;25.678;2023-04-26T05:33:51;12.52;;;10.55;;
77826;SDS011;67016;42.508;25.678;2023-04-26T05:36:17;11.35;;;7.93;;
77826;SDS011;67016;42.508;25.678;2023-04-26T05:38:43;10.63;;;7.90;;
77826;SDS011;67016;42.508;25.678;2023-04-26T05:41:09;8.60;;;6.88;;
77826;SDS011;67016;42.508;25.678;2023-04-26T05:43:35;7.65;;;6.85;;
77826;SDS011;67016;42.508;25.678;2023-04-26T05:46:01;9.27;;;7.78;;
77826;SDS011;67016;42.508;25.678;2023-04-26T05:48:27;10.90;;;7.97;;
77826;SDS011;67016;42.508;25.678;2023-04-26T05:50:53;13.95;;;8.60;;
77826;SDS011;67016;42.508;25.678;2023-04-26T05:53:19;9.27;;;8.38;;
77826;SDS011;67016;42.508;25.678;2023-04-26T05:55:45;8.95;;;7.93;;
77826;SDS011;67016;42.508;25.678;2023-04-26T05:58:22;10.45;;;8.43;;
77826;SDS011;67016;42.508;25.678;2023-04-26T06:00:53;9.88;;;8.27;;
77826;SDS011;67016;42.508;25.678;2023-04-26T06:03:18;8.52;;;7.65;;
77826;SDS011;67016;42.508;25.678;2023-04-26T06:05:44;8.88;;;7.93;;
77826;SDS011;67016;42.508;25.678;2023-04-26T06:08:09;8.82;;;7.45;;
77826;SDS011;67016;42.508;25.678;2023-04-26T06:10:35;10.05;;;7.65;;
77826;SDS011;67016;42.508;25.678;2023-04-26T06:13:02;8.20;;;7.40;;
77826;SDS011;67016;42.508;25.678;2023-04-26T06:15:28;7.53;;;6.75;;
77826;SDS011;67016;42.508;25.678;2023-04-26T06:17:56;7.75;;;7.03;;
77826;SDS011;67016;42.508;25.678;2023-04-26T06:20:22;6.93;;;6.22;;
77826;SDS011;67016;42.508;25.678;2023-04-26T06:22:49;8.13;;;7.32;;
77826;SDS011;67016;42.508;25.678;2023-04-26T06:25:14;8.38;;;6.95;;
77826;SDS011;67016;42.508;25.678;2023-04-26T06:27:40;7.72;;;6.80;;
77826;SDS011;67016;42.508;25.678;2023-04-26T06:30:06;9.75;;;6.90;;
77826;SDS011;67016;42.508;25.678;2023-04-26T06:32:32;9.63;;;7.75;;
77826;SDS011;67016;42.508;25.678;2023-04-26T06:34:58;13.43;;;6.53;;
77826;SDS011;67016;42.508;25.678;2023-04-26T06:37:23;12.55;;;6.65;;
77826;SDS011;67016;42.508;25.678;2023-04-26T06:39:49;7.35;;;6.50;;
77826;SDS011;67016;42.508;25.678;2023-04-26T06:42:14;8.13;;;5.93;;
77826;SDS011;67016;42.508;25.678;2023-04-26T06:44:40;6.93;;;6.32;;
77826;SDS011;67016;42.508;25.678;2023-04-26T06:47:06;6.97;;;6.20;;
77826;SDS011;67016;42.508;25.678;2023-04-26T06:49:33;7.00;;;6.30;;
77826;SDS011;67016;42.508;25.678;2023-04-26T06:51:59;7.65;;;6.95;;
77826;SDS011;67016;42.508;25.678;2023-04-26T06:54:28;7.30;;;6.20;;
77826;SDS011;67016;42.508;25.678;2023-04-26T06:56:54;8.00;;;7.13;;
77826;SDS011;67016;42.508;25.678;2023-04-26T06:59:20;8.23;;;6.13;;
77826;SDS011;67016;42.508;25.678;2023-04-26T07:01:46;6.80;;;6.20;;
77826;SDS011;67016;42.508;25.678;2023-04-26T07:04:12;7.68;;;5.60;;
77826;SDS011;67016;42.508;25.678;2023-04-26T07:06:39;9.65;;;6.20;;
77826;SDS011;67016;42.508;25.678;2023-04-26T07:09:05;6.03;;;5.53;;
77826;SDS011;67016;42.508;25.678;2023-04-26T07:11:32;6.20;;;5.60;;
77826;SDS011;67016;42.508;25.678;2023-04-26T07:13:57;6.82;;;5.28;;
77826;SDS011;67016;42.508;25.678;2023-04-26T07:16:23;5.70;;;5.10;;
77826;SDS011;67016;42.508;25.678;2023-04-26T07:18:49;4.63;;;4.20;;
77826;SDS011;67016;42.508;25.678;2023-04-26T07:21:17;7.10;;;5.68;;
77826;SDS011;67016;42.508;25.678;2023-04-26T07:23:43;5.80;;;5.20;;
77826;SDS011;67016;42.508;25.678;2023-04-26T07:26:12;6.30;;;4.88;;
77826;SDS011;67016;42.508;25.678;2023-04-26T07:28:37;14.05;;;10.85;;
77826;SDS011;67016;42.508;25.678;2023-04-26T07:31:03;6.22;;;5.10;;
77826;SDS011;67016;42.508;25.678;2023-04-26T07:33:29;6.95;;;4.93;;
77826;SDS011;67016;42.508;25.678;2023-04-26T07:35:55;5.95;;;3.95;;
77826;SDS011;67016;42.508;25.678;2023-04-26T07:38:22;6.57;;;4.38;;
77826;SDS011;67016;42.508;25.678;2023-04-26T07:40:48;5.80;;;4.30;;
77826;SDS011;67016;42.508;25.678;2023-04-26T07:43:14;7.80;;;4.85;;
77826;SDS011;67016;42.508;25.678;2023-04-26T07:45:40;5.50;;;4.47;;
77826;SDS011;67016;42.508;25.678;2023-04-26T07:48:06;6.50;;;4.55;;
77826;SDS011;67016;42.508;25.678;2023-04-26T07:50:32;4.20;;;3.80;;
77826;SDS011;67016;42.508;25.678;2023-04-26T07:52:57;4.15;;;3.72;;
77826;SDS011;67016;42.508;25.678;2023-04-26T07:55:23;11.00;;;5.05;;
77826;SDS011;67016;42.508;25.678;2023-04-26T07:57:49;7.10;;;5.07;;
77826;SDS011;67016;42.508;25.678;2023-04-26T08:00:15;7.63;;;5.40;;
77826;SDS011;67016;42.508;25.678;2023-04-26T08:02:41;5.50;;;4.82;;
77826;SDS011;67016;42.508;25.678;2023-04-26T08:05:07;4.60;;;4.15;;
77826;SDS011;67016;42.508;25.678;2023-04-26T08:07:33;4.28;;;3.90;;
77826;SDS011;67016;42.508;25.678;2023-04-26T08:09:58;4.97;;;4.55;;
77826;SDS011;67016;42.508;25.678;2023-04-26T08:12:24;4.68;;;4.28;;
77826;SDS011;67016;42.508;25.678;2023-04-26T08:14:50;5.80;;;4.03;;
77826;SDS011;67016;42.508;25.678;2023-04-26T08:17:15;5.95;;;4.30;;
77826;SDS011;67016;42.508;25.678;2023-04-26T08:19:41;5.30;;;4.18;;
77826;SDS011;67016;42.508;25.678;2023-04-26T08:22:07;5.75;;;4.78;;
77826;SDS011;67016;42.508;25.678;2023-04-26T08:24:33;5.55;;;4.47;;
77826;SDS011;67016;42.508;25.678;2023-04-26T08:26:58;5.07;;;4.57;;
77826;SDS011;67016;42.508;25.678;2023-04-26T08:29:25;6.65;;;4.57;;
77826;SDS011;67016;42.508;25.678;2023-04-26T08:31:51;9.50;;;5.10;;
77826;SDS011;67016;42.508;25.678;2023-04-26T08:34:17;11.82;;;5.93;;
77826;SDS011;67016;42.508;25.678;2023-04-26T08:36:42;7.68;;;6.10;;
77826;SDS011;67016;42.508;25.678;2023-04-26T08:39:09;6.07;;;5.38;;
77826;SDS011;67016;42.508;25.678;2023-04-26T08:41:37;7.75;;;5.95;;
77826;SDS011;67016;42.508;25.678;2023-04-26T08:44:10;6.57;;;5.60;;
77826;SDS011;67016;42.508;25.678;2023-04-26T08:52:08;6.53;;;5.00;;
77826;SDS011;67016;42.508;25.678;2023-04-26T08:54:39;6.63;;;5.05;;
77826;SDS011;67016;42.508;25.678;2023-04-26T08:57:06;6.38;;;4.60;;
77826;SDS011;67016;42.508;25.678;2023-04-26T08:59:32;4.38;;;3.55;;
77826;SDS011;67016;42.508;25.678;2023-04-26T09:02:03;6.23;;;4.50;;
77826;SDS011;67016;42.508;25.678;2023-04-26T09:04:33;4.78;;;4.28;;
77826;SDS011;67016;42.508;25.678;2023-04-26T09:07:01;5.68;;;5.00;;
77826;SDS011;67016;42.508;25.678;2023-04-26T09:09:27;6.05;;;4.40;;
77826;SDS011;67016;42.508;25.678;2023-04-26T09:11:58;6.35;;;4.72;;
77826;SDS011;67016;42.508;25.678;2023-04-26T09:14:26;4.00;;;3.60;;
77826;SDS011;67016;42.508;25.678;2023-04-26T09:16:52;4.18;;;3.65;;
77826;SDS011;67016;42.508;25.678;2023-04-26T09:19:37;4.63;;;3.97;;
77826;SDS011;67016;42.508;25.678;2023-04-26T09:22:04;3.95;;;3.55;;
77826;SDS011;67016;42.508;25.678;2023-04-26T09:24:46;6.85;;;4.18;;
77826;SDS011;67016;42.508;25.678;2023-04-26T09:27:16;3.92;;;3.50;;
77826;SDS011;67016;42.508;25.678;2023-04-26T09:33:12;4.00;;;3.65;;
77826;SDS011;67016;42.508;25.678;2023-04-26T09:35:38;4.50;;;3.47;;
77826;SDS011;67016;42.508;25.678;2023-04-26T09:40:37;3.50;;;3.20;;
77826;SDS011;67016;42.508;25.678;2023-04-26T09:43:15;4.85;;;4.28;;
77826;SDS011;67016;42.508;25.678;2023-04-26T09:48:18;6.53;;;3.58;;
77826;SDS011;67016;42.508;25.678;2023-04-26T09:50:50;6.30;;;3.20;;
77826;SDS011;67016;42.508;25.678;2023-04-26T09:53:29;5.45;;;3.00;;
77826;SDS011;67016;42.508;25.678;2023-04-26T09:56:10;3.75;;;3.38;;
77826;SDS011;67016;42.508;25.678;2023-04-26T10:01:24;4.35;;;3.35;;
77826;SDS011;67016;42.508;25.678;2023-04-26T10:03:53;4.90;;;2.95;;
77826;SDS011;67016;42.508;25.678;2023-04-26T10:06:20;3.42;;;3.03;;
77826;SDS011;67016;42.508;25.678;2023-04-26T10:08:47;3.42;;;3.15;;
77826;SDS011;67016;42.508;25.678;2023-04-26T10:11:12;3.70;;;3.40;;
77826;SDS011;67016;42.508;25.678;2023-04-26T10:13:41;4.70;;;3.80;;
77826;SDS011;67016;42.508;25.678;2023-04-26T10:16:09;4.03;;;3.63;;
77826;SDS011;67016;42.508;25.678;2023-04-26T10:18:35;5.53;;;3.28;;
77826;SDS011;67016;42.508;25.678;2023-04-26T10:23:35;3.95;;;3.20;;
77826;SDS011;67016;42.508;25.678;2023-04-26T10:26:00;3.80;;;3.40;;
77826;SDS011;67016;42.508;25.678;2023-04-26T10:33:43;4.25;;;3.55;;
77826;SDS011;67016;42.508;25.678;2023-04-26T10:36:09;4.22;;;3.67;;
77826;SDS011;67016;42.508;25.678;2023-04-26T10:38:40;4.45;;;4.05;;
77826;SDS011;67016;42.508;25.678;2023-04-26T10:41:27;7.57;;;3.95;;
77826;SDS011;67016;42.508;25.678;2023-04-26T10:43:57;14.63;;;9.40;;
77826;SDS011;67016;42.508;25.678;2023-04-26T10:46:34;7.18;;;4.43;;
77826;SDS011;67016;42.508;25.678;2023-04-26T10:49:16;8.93;;;5.88;;
77826;SDS011;67016;42.508;25.678;2023-04-26T10:57:17;8.35;;;6.75;;
77826;SDS011;67016;42.508;25.678;2023-04-26T11:00:14;10.30;;;8.82;;
77826;SDS011;67016;42.508;25.678;2023-04-26T11:08:16;12.05;;;9.90;;
77826;SDS011;67016;42.508;25.678;2023-04-26T11:10:45;4.22;;;3.60;;
77826;SDS011;67016;42.508;25.678;2023-04-26T11:13:15;5.03;;;4.32;;
77826;SDS011;67016;42.508;25.678;2023-04-26T11:15:41;6.95;;;5.85;;
77826;SDS011;67016;42.508;25.678;2023-04-26T11:18:07;4.88;;;4.10;;
77826;SDS011;67016;42.508;25.678;2023-04-26T11:20:34;4.78;;;4.38;;
77826;SDS011;67016;42.508;25.678;2023-04-26T11:23:01;6.03;;;4.97;;
77826;SDS011;67016;42.508;25.678;2023-04-26T11:25:28;5.25;;;4.13;;
77826;SDS011;67016;42.508;25.678;2023-04-26T11:27:58;4.88;;;4.32;;
77826;SDS011;67016;42.508;25.678;2023-04-26T11:30:26;6.47;;;4.25;;
77826;SDS011;67016;42.508;25.678;2023-04-26T11:32:56;9.30;;;4.93;;
77826;SDS011;67016;42.508;25.678;2023-04-26T11:35:25;4.43;;;3.92;;
77826;SDS011;67016;42.508;25.678;2023-04-26T11:37:56;4.40;;;4.00;;
77826;SDS011;67016;42.508;25.678;2023-04-26T11:40:22;4.22;;;3.72;;
77826;SDS011;67016;42.508;25.678;2023-04-26T11:42:52;4.68;;;3.72;;
77826;SDS011;67016;42.508;25.678;2023-04-26T11:45:18;3.88;;;3.47;;
77826;SDS011;67016;42.508;25.678;2023-04-26T11:47:44;4.82;;;3.95;;
77826;SDS011;67016;42.508;25.678;2023-04-26T11:50:10;3.83;;;3.53;;
77826;SDS011;67016;42.508;25.678;2023-04-26T11:52:36;3.53;;;3.22;;
77826;SDS011;67016;42.508;25.678;2023-04-26T11:55:05;9.45;;;6.20;;
77826;SDS011;67016;42.508;25.678;2023-04-26T11:57:31;5.10;;;4.50;;
77826;SDS011;67016;42.508;25.678;2023-04-26T12:00:08;17.27;;;10.38;;
77826;SDS011;67016;42.508;25.678;2023-04-26T12:02:47;10.88;;;5.68;;
77826;SDS011;67016;42.508;25.678;2023-04-26T12:05:22;19.30;;;9.98;;
77826;SDS011;67016;42.508;25.678;2023-04-26T12:07:56;15.20;;;8.98;;
77826;SDS011;67016;42.508;25.678;2023-04-26T12:10:26;7.80;;;5.20;;
77826;SDS011;67016;42.508;25.678;2023-04-26T12:12:53;13.18;;;8.07;;
77826;SDS011;67016;42.508;25.678;2023-04-26T12:15:23;20.73;;;11.40;;
77826;SDS011;67016;42.508;25.678;2023-04-26T12:17:55;10.43;;;7.32;;
77826;SDS011;67016;42.508;25.678;2023-04-26T12:20:30;4.55;;;4.07;;
77826;SDS011;67016;42.508;25.678;2023-04-26T12:22:57;11.50;;;7.30;;
77826;SDS011;67016;42.508;25.678;2023-04-26T12:25:23;18.42;;;10.95;;
77826;SDS011;67016;42.508;25.678;2023-04-26T12:27:49;13.52;;;8.93;;
77826;SDS011;67016;42.508;25.678;2023-04-26T12:30:14;10.77;;;6.15;;
77826;SDS011;67016;42.508;25.678;2023-04-26T12:32:40;14.75;;;9.20;;
77826;SDS011;67016;42.508;25.678;2023-04-26T12:35:06;10.30;;;6.43;;
77826;SDS011;67016;42.508;25.678;2023-04-26T12:37:32;6.35;;;3.78;;
77826;SDS011;67016;42.508;25.678;2023-04-26T12:39:58;3.97;;;3.58;;
77826;SDS011;67016;42.508;25.678;2023-04-26T12:42:23;20.58;;;10.07;;
77826;SDS011;67016;42.508;25.678;2023-04-26T12:44:49;16.70;;;8.18;;
77826;SDS011;67016;42.508;25.678;2023-04-26T12:47:15;13.30;;;8.07;;
77826;SDS011;67016;42.508;25.678;2023-04-26T12:49:40;5.70;;;3.47;;
77826;SDS011;67016;42.508;25.678;2023-04-26T12:52:06;4.57;;;3.97;;
77826;SDS011;67016;42.508;25.678;2023-04-26T12:54:32;6.15;;;3.28;;
77826;SDS011;67016;42.508;25.678;2023-04-26T12:56:59;4.85;;;3.45;;
77826;SDS011;67016;42.508;25.678;2023-04-26T12:59:24;5.00;;;3.70;;
77826;SDS011;67016;42.508;25.678;2023-04-26T13:01:50;5.15;;;4.45;;
77826;SDS011;67016;42.508;25.678;2023-04-26T13:04:16;5.68;;;4.07;;
77826;SDS011;67016;42.508;25.678;2023-04-26T13:06:41;12.25;;;5.30;;
77826;SDS011;67016;42.508;25.678;2023-04-26T13:09:07;10.25;;;5.82;;
77826;SDS011;67016;42.508;25.678;2023-04-26T13:11:33;12.70;;;7.85;;
77826;SDS011;67016;42.508;25.678;2023-04-26T13:13:58;13.98;;;9.05;;
77826;SDS011;67016;42.508;25.678;2023-04-26T13:16:24;17.83;;;10.52;;
77826;SDS011;67016;42.508;25.678;2023-04-26T13:18:50;18.70;;;10.65;;
77826;SDS011;67016;42.508;25.678;2023-04-26T13:21:16;15.18;;;9.13;;
77826;SDS011;67016;42.508;25.678;2023-04-26T13:23:41;10.43;;;6.85;;
77826;SDS011;67016;42.508;25.678;2023-04-26T13:26:07;6.20;;;4.85;;
77826;SDS011;67016;42.508;25.678;2023-04-26T13:28:34;6.20;;;4.85;;
77826;SDS011;67016;42.508;25.678;2023-04-26T13:31:01;4.28;;;3.70;;
77826;SDS011;67016;42.508;25.678;2023-04-26T13:33:26;5.38;;;3.97;;
77826;SDS011;67016;42.508;25.678;2023-04-26T13:35:52;7.82;;;4.47;;
77826;SDS011;67016;42.508;25.678;2023-04-26T13:38:18;5.97;;;4.32;;
77826;SDS011;67016;42.508;25.678;2023-04-26T13:40:44;4.72;;;3.72;;
77826;SDS011;67016;42.508;25.678;2023-04-26T13:43:10;7.50;;;4.28;;
77826;SDS011;67016;42.508;25.678;2023-04-26T13:45:36;6.28;;;4.30;;
77826;SDS011;67016;42.508;25.678;2023-04-26T13:48:01;5.28;;;4.20;;
77826;SDS011;67016;42.508;25.678;2023-04-26T13:50:27;7.00;;;4.40;;
77826;SDS011;67016;42.508;25.678;2023-04-26T13:52:53;12.95;;;9.80;;
77826;SDS011;67016;42.508;25.678;2023-04-26T13:55:18;6.72;;;5.45;;
77826;SDS011;67016;42.508;25.678;2023-04-26T13:57:44;8.15;;;6.10;;
77826;SDS011;67016;42.508;25.678;2023-04-26T14:00:10;5.88;;;4.68;;
77826;SDS011;67016;42.508;25.678;2023-04-26T14:02:38;9.35;;;4.90;;
77826;SDS011;67016;42.508;25.678;2023-04-26T14:05:04;6.70;;;4.80;;
77826;SDS011;67016;42.508;25.678;2023-04-26T14:07:32;5.40;;;4.90;;
77826;SDS011;67016;42.508;25.678;2023-04-26T14:09:57;5.88;;;4.32;;
77826;SDS011;67016;42.508;25.678;2023-04-26T14:12:23;6.80;;;4.65;;
77826;SDS011;67016;42.508;25.678;2023-04-26T14:14:49;5.22;;;4.72;;
77826;SDS011;67016;42.508;25.678;2023-04-26T14:17:15;6.07;;;5.47;;
77826;SDS011;67016;42.508;25.678;2023-04-26T14:19:40;10.20;;;5.68;;
77826;SDS011;67016;42.508;25.678;2023-04-26T14:22:06;8.57;;;5.57;;
77826;SDS011;67016;42.508;25.678;2023-04-26T14:24:34;7.13;;;5.82;;
77826;SDS011;67016;42.508;25.678;2023-04-26T14:26:59;7.50;;;5.20;;
77826;SDS011;67016;42.508;25.678;2023-04-26T14:29:26;5.15;;;4.65;;
77826;SDS011;67016;42.508;25.678;2023-04-26T14:31:51;6.55;;;5.07;;
77826;SDS011;67016;42.508;25.678;2023-04-26T14:34:17;8.63;;;5.05;;
77826;SDS011;67016;42.508;25.678;2023-04-26T14:36:43;4.93;;;4.47;;
77826;SDS011;67016;42.508;25.678;2023-04-26T14:39:08;4.20;;;3.80;;
77826;SDS011;67016;42.508;25.678;2023-04-26T14:41:34;6.75;;;4.78;;
77826;SDS011;67016;42.508;25.678;2023-04-26T14:44:00;5.28;;;4.78;;
77826;SDS011;67016;42.508;25.678;2023-04-26T14:46:25;4.88;;;4.38;;
77826;SDS011;67016;42.508;25.678;2023-04-26T14:48:51;6.22;;;4.68;;
77826;SDS011;67016;42.508;25.678;2023-04-26T14:51:16;5.45;;;4.93;;
77826;SDS011;67016;42.508;25.678;2023-04-26T14:53:42;5.03;;;4.57;;
77826;SDS011;67016;42.508;25.678;2023-04-26T14:56:11;5.88;;;5.05;;
77826;SDS011;67016;42.508;25.678;2023-04-26T14:58:48;4.90;;;4.22;;
77826;SDS011;67016;42.508;25.678;2023-04-26T15:01:30;7.35;;;4.75;;
77826;SDS011;67016;42.508;25.678;2023-04-26T15:03:55;6.18;;;4.97;;